sensor_id;sensor_type;location;lat;lon;timestamp;P1;durP1;ratioP1;P2;durP2;ratioP2
5147;SDS011;2592;48.140;7.614;2024-02-28T00:00:11;24.70;;;19.57;;
5147;SDS011;2592;48.140;7.614;2024-02-28T00:02:38;27.87;;;22.30;;
5147;SDS011;2592;48.140;7.614;2024-02-28T00:05:04;30.03;;;22.80;;
5147;SDS011;2592;48.140;7.614;2024-02-28T00:07:31;31.10;;;23.87;;
5147;SDS011;2592;48.140;7.614;2024-02-28T00:09:57;27.37;;;19.63;;
5147;SDS011;2592;48.140;7.614;2024-02-28T00:12:24;22.50;;;19.53;;
5147;SDS011;2592;48.140;7.614;2024-02-28T00:14:51;24.27;;;19.63;;
5147;SDS011;2592;48.140;7.614;2024-02-28T00:17:19;22.17;;;19.30;;
5147;SDS011;2592;48.140;7.614;2024-02-28T00:19:45;25.73;;;20.33;;
5147;SDS011;2592;48.140;7.614;2024-02-28T00:22:11;25.10;;;19.00;;
5147;SDS011;2592;48.140;7.614;2024-02-28T00:24:38;25.40;;;20.00;;
5147;SDS011;2592;48.140;7.614;2024-02-28T00:27:04;26.20;;;20.33;;
5147;SDS011;2592;48.140;7.614;2024-02-28T00:29:30;24.77;;;20.30;;
5147;SDS011;2592;48.140;7.614;2024-02-28T00:31:57;23.60;;;18.67;;
5147;SDS011;2592;48.140;7.614;2024-02-28T00:34:24;26.90;;;20.43;;
5147;SDS011;2592;48.140;7.614;2024-02-28T00:36:51;23.20;;;17.83;;
5147;SDS011;2592;48.140;7.614;2024-02-28T00:39:17;24.30;;;18.27;;
5147;SDS011;2592;48.140;7.614;2024-02-28T00:41:44;29.73;;;18.80;;
5147;SDS011;2592;48.140;7.614;2024-02-28T00:44:10;22.50;;;17.97;;
5147;SDS011;2592;48.140;7.614;2024-02-28T00:46:36;24.73;;;18.50;;
5147;SDS011;2592;48.140;7.614;2024-02-28T00:49:03;21.80;;;17.83;;
5147;SDS011;2592;48.140;7.614;2024-02-28T00:51:31;25.43;;;17.90;;
5147;SDS011;2592;48.140;7.614;2024-02-28T00:53:57;21.30;;;17.30;;
5147;SDS011;2592;48.140;7.614;2024-02-28T00:56:23;24.13;;;17.37;;
5147;SDS011;2592;48.140;7.614;2024-02-28T00:58:52;22.30;;;18.23;;
5147;SDS011;2592;48.140;7.614;2024-02-28T01:01:18;20.77;;;17.30;;
5147;SDS011;2592;48.140;7.614;2024-02-28T01:03:45;23.07;;;18.50;;
5147;SDS011;2592;48.140;7.614;2024-02-28T01:06:11;22.17;;;17.23;;
5147;SDS011;2592;48.140;7.614;2024-02-28T01:08:39;25.53;;;18.73;;
5147;SDS011;2592;48.140;7.614;2024-02-28T01:11:05;25.33;;;18.80;;
5147;SDS011;2592;48.140;7.614;2024-02-28T01:13:31;19.07;;;16.67;;
5147;SDS011;2592;48.140;7.614;2024-02-28T01:15:58;23.80;;;18.37;;
5147;SDS011;2592;48.140;7.614;2024-02-28T01:18:25;24.93;;;18.70;;
5147;SDS011;2592;48.140;7.614;2024-02-28T01:20:53;22.97;;;18.60;;
5147;SDS011;2592;48.140;7.614;2024-02-28T01:23:19;23.60;;;19.10;;
5147;SDS011;2592;48.140;7.614;2024-02-28T01:25:47;23.43;;;17.70;;
5147;SDS011;2592;48.140;7.614;2024-02-28T01:28:14;21.03;;;17.00;;
5147;SDS011;2592;48.140;7.614;2024-02-28T01:30:40;22.47;;;18.40;;
5147;SDS011;2592;48.140;7.614;2024-02-28T01:33:06;19.90;;;17.63;;
5147;SDS011;2592;48.140;7.614;2024-02-28T01:35:33;20.63;;;16.27;;
5147;SDS011;2592;48.140;7.614;2024-02-28T01:37:59;23.80;;;18.13;;
5147;SDS011;2592;48.140;7.614;2024-02-28T01:40:25;20.60;;;17.70;;
5147;SDS011;2592;48.140;7.614;2024-02-28T01:42:53;22.30;;;17.20;;
5147;SDS011;2592;48.140;7.614;2024-02-28T01:45:19;20.47;;;17.00;;
5147;SDS011;2592;48.140;7.614;2024-02-28T01:47:46;20.20;;;16.77;;
5147;SDS011;2592;48.140;7.614;2024-02-28T01:50:12;23.37;;;18.77;;
5147;SDS011;2592;48.140;7.614;2024-02-28T01:52:39;20.50;;;17.50;;
5147;SDS011;2592;48.140;7.614;2024-02-28T01:55:06;24.70;;;17.80;;
5147;SDS011;2592;48.140;7.614;2024-02-28T01:57:32;23.80;;;18.10;;
5147;SDS011;2592;48.140;7.614;2024-02-28T02:00:01;19.83;;;17.07;;
5147;SDS011;2592;48.140;7.614;2024-02-28T02:02:29;25.40;;;18.03;;
5147;SDS011;2592;48.140;7.614;2024-02-28T02:04:55;22.50;;;18.40;;
5147;SDS011;2592;48.140;7.614;2024-02-28T02:07:23;22.30;;;17.03;;
5147;SDS011;2592;48.140;7.614;2024-02-28T02:09:49;19.63;;;17.50;;
5147;SDS011;2592;48.140;7.614;2024-02-28T02:12:16;22.53;;;17.90;;
5147;SDS011;2592;48.140;7.614;2024-02-28T02:14:46;28.80;;;19.17;;
5147;SDS011;2592;48.140;7.614;2024-02-28T02:17:14;23.60;;;17.07;;
5147;SDS011;2592;48.140;7.614;2024-02-28T02:19:41;23.30;;;18.63;;
5147;SDS011;2592;48.140;7.614;2024-02-28T02:22:07;24.03;;;18.07;;
5147;SDS011;2592;48.140;7.614;2024-02-28T02:24:35;22.53;;;16.90;;
5147;SDS011;2592;48.140;7.614;2024-02-28T02:27:02;18.73;;;15.97;;
5147;SDS011;2592;48.140;7.614;2024-02-28T02:29:29;22.00;;;17.30;;
5147;SDS011;2592;48.140;7.614;2024-02-28T02:31:56;24.27;;;17.20;;
5147;SDS011;2592;48.140;7.614;2024-02-28T02:34:22;29.03;;;17.63;;
5147;SDS011;2592;48.140;7.614;2024-02-28T02:36:48;21.90;;;17.80;;
5147;SDS011;2592;48.140;7.614;2024-02-28T02:39:15;23.77;;;18.70;;
5147;SDS011;2592;48.140;7.614;2024-02-28T02:41:43;22.47;;;17.93;;
5147;SDS011;2592;48.140;7.614;2024-02-28T02:44:09;23.80;;;18.23;;
5147;SDS011;2592;48.140;7.614;2024-02-28T02:46:35;23.50;;;17.50;;
5147;SDS011;2592;48.140;7.614;2024-02-28T02:49:02;25.00;;;19.70;;
5147;SDS011;2592;48.140;7.614;2024-02-28T02:51:28;22.73;;;18.43;;
5147;SDS011;2592;48.140;7.614;2024-02-28T02:53:54;23.70;;;18.23;;
5147;SDS011;2592;48.140;7.614;2024-02-28T02:56:21;23.23;;;19.63;;
5147;SDS011;2592;48.140;7.614;2024-02-28T02:58:49;25.07;;;18.70;;
5147;SDS011;2592;48.140;7.614;2024-02-28T03:01:15;29.10;;;19.80;;
5147;SDS011;2592;48.140;7.614;2024-02-28T03:03:41;22.13;;;17.90;;
5147;SDS011;2592;48.140;7.614;2024-02-28T03:06:08;27.30;;;19.10;;
5147;SDS011;2592;48.140;7.614;2024-02-28T03:08:35;24.27;;;19.90;;
5147;SDS011;2592;48.140;7.614;2024-02-28T03:11:01;22.90;;;17.77;;
5147;SDS011;2592;48.140;7.614;2024-02-28T03:13:29;30.43;;;18.90;;
5147;SDS011;2592;48.140;7.614;2024-02-28T03:15:57;23.97;;;19.70;;
5147;SDS011;2592;48.140;7.614;2024-02-28T03:18:23;20.73;;;17.53;;
5147;SDS011;2592;48.140;7.614;2024-02-28T03:20:50;23.23;;;19.10;;
5147;SDS011;2592;48.140;7.614;2024-02-28T03:23:16;21.47;;;18.43;;
5147;SDS011;2592;48.140;7.614;2024-02-28T03:25:42;29.37;;;19.97;;
5147;SDS011;2592;48.140;7.614;2024-02-28T03:28:09;25.30;;;19.83;;
5147;SDS011;2592;48.140;7.614;2024-02-28T03:30:35;26.17;;;20.83;;
5147;SDS011;2592;48.140;7.614;2024-02-28T03:33:03;29.80;;;20.30;;
5147;SDS011;2592;48.140;7.614;2024-02-28T03:35:29;24.23;;;19.77;;
5147;SDS011;2592;48.140;7.614;2024-02-28T03:37:56;24.33;;;19.77;;
5147;SDS011;2592;48.140;7.614;2024-02-28T03:40:22;29.70;;;21.30;;
5147;SDS011;2592;48.140;7.614;2024-02-28T03:42:48;25.53;;;21.40;;
5147;SDS011;2592;48.140;7.614;2024-02-28T03:45:15;24.93;;;19.87;;
5147;SDS011;2592;48.140;7.614;2024-02-28T03:47:41;23.13;;;18.30;;
5147;SDS011;2592;48.140;7.614;2024-02-28T03:50:09;27.90;;;20.83;;
5147;SDS011;2592;48.140;7.614;2024-02-28T03:52:35;23.73;;;19.80;;
5147;SDS011;2592;48.140;7.614;2024-02-28T03:55:02;24.70;;;19.53;;
5147;SDS011;2592;48.140;7.614;2024-02-28T03:57:28;24.93;;;20.30;;
5147;SDS011;2592;48.140;7.614;2024-02-28T03:59:55;32.67;;;21.60;;
5147;SDS011;2592;48.140;7.614;2024-02-28T04:02:21;23.07;;;19.23;;
5147;SDS011;2592;48.140;7.614;2024-02-28T04:04:47;27.73;;;20.67;;
5147;SDS011;2592;48.140;7.614;2024-02-28T04:07:15;26.20;;;20.10;;
5147;SDS011;2592;48.140;7.614;2024-02-28T04:09:41;25.07;;;20.40;;
5147;SDS011;2592;48.140;7.614;2024-02-28T04:12:08;25.40;;;20.67;;
5147;SDS011;2592;48.140;7.614;2024-02-28T04:14:37;24.30;;;19.57;;
5147;SDS011;2592;48.140;7.614;2024-02-28T04:17:03;26.30;;;21.00;;
5147;SDS011;2592;48.140;7.614;2024-02-28T04:19:32;30.57;;;21.67;;
5147;SDS011;2592;48.140;7.614;2024-02-28T04:21:58;25.13;;;21.00;;
5147;SDS011;2592;48.140;7.614;2024-02-28T04:24:26;26.07;;;20.77;;
5147;SDS011;2592;48.140;7.614;2024-02-28T04:26:51;32.10;;;22.43;;
5147;SDS011;2592;48.140;7.614;2024-02-28T04:29:18;26.87;;;21.60;;
5147;SDS011;2592;48.140;7.614;2024-02-28T04:31:44;31.47;;;22.27;;
5147;SDS011;2592;48.140;7.614;2024-02-28T04:34:11;28.77;;;22.67;;
5147;SDS011;2592;48.140;7.614;2024-02-28T04:36:37;27.03;;;21.50;;
5147;SDS011;2592;48.140;7.614;2024-02-28T04:39:04;24.93;;;20.07;;
5147;SDS011;2592;48.140;7.614;2024-02-28T04:41:34;25.83;;;21.57;;
5147;SDS011;2592;48.140;7.614;2024-02-28T04:44:00;33.27;;;21.97;;
5147;SDS011;2592;48.140;7.614;2024-02-28T04:46:26;26.07;;;20.80;;
5147;SDS011;2592;48.140;7.614;2024-02-28T04:48:52;33.20;;;20.63;;
5147;SDS011;2592;48.140;7.614;2024-02-28T04:51:18;25.60;;;21.50;;
5147;SDS011;2592;48.140;7.614;2024-02-28T04:53:44;27.30;;;21.80;;
5147;SDS011;2592;48.140;7.614;2024-02-28T04:56:11;38.13;;;22.70;;
5147;SDS011;2592;48.140;7.614;2024-02-28T04:58:38;28.03;;;22.90;;
5147;SDS011;2592;48.140;7.614;2024-02-28T05:01:05;28.83;;;22.30;;
5147;SDS011;2592;48.140;7.614;2024-02-28T05:03:31;28.87;;;21.90;;
5147;SDS011;2592;48.140;7.614;2024-02-28T05:05:57;31.03;;;22.03;;
5147;SDS011;2592;48.140;7.614;2024-02-28T05:08:24;29.57;;;22.93;;
5147;SDS011;2592;48.140;7.614;2024-02-28T05:10:52;25.80;;;22.20;;
5147;SDS011;2592;48.140;7.614;2024-02-28T05:13:18;26.23;;;21.07;;
5147;SDS011;2592;48.140;7.614;2024-02-28T05:15:46;29.43;;;22.57;;
5147;SDS011;2592;48.140;7.614;2024-02-28T05:18:12;28.23;;;22.57;;
5147;SDS011;2592;48.140;7.614;2024-02-28T05:20:39;32.10;;;23.93;;
5147;SDS011;2592;48.140;7.614;2024-02-28T05:23:05;36.13;;;27.77;;
5147;SDS011;2592;48.140;7.614;2024-02-28T05:25:32;40.90;;;28.77;;
5147;SDS011;2592;48.140;7.614;2024-02-28T05:27:58;35.13;;;26.50;;
5147;SDS011;2592;48.140;7.614;2024-02-28T05:30:24;34.33;;;26.50;;
5147;SDS011;2592;48.140;7.614;2024-02-28T05:32:52;41.30;;;28.70;;
5147;SDS011;2592;48.140;7.614;2024-02-28T05:35:18;30.03;;;23.87;;
5147;SDS011;2592;48.140;7.614;2024-02-28T05:37:45;34.27;;;26.03;;
5147;SDS011;2592;48.140;7.614;2024-02-28T05:40:12;28.07;;;23.33;;
5147;SDS011;2592;48.140;7.614;2024-02-28T05:42:39;29.17;;;24.23;;
5147;SDS011;2592;48.140;7.614;2024-02-28T05:45:07;27.90;;;23.73;;
5147;SDS011;2592;48.140;7.614;2024-02-28T05:47:34;32.97;;;25.03;;
5147;SDS011;2592;48.140;7.614;2024-02-28T05:50:01;32.20;;;24.50;;
5147;SDS011;2592;48.140;7.614;2024-02-28T05:52:30;27.27;;;22.53;;
5147;SDS011;2592;48.140;7.614;2024-02-28T05:54:56;29.50;;;22.50;;
5147;SDS011;2592;48.140;7.614;2024-02-28T05:57:23;33.63;;;23.77;;
5147;SDS011;2592;48.140;7.614;2024-02-28T05:59:49;31.57;;;24.03;;
5147;SDS011;2592;48.140;7.614;2024-02-28T06:02:16;30.47;;;24.07;;
5147;SDS011;2592;48.140;7.614;2024-02-28T06:04:42;28.97;;;23.00;;
5147;SDS011;2592;48.140;7.614;2024-02-28T06:07:10;31.87;;;24.40;;
5147;SDS011;2592;48.140;7.614;2024-02-28T06:09:36;30.37;;;25.03;;
5147;SDS011;2592;48.140;7.614;2024-02-28T06:12:03;30.17;;;24.23;;
5147;SDS011;2592;48.140;7.614;2024-02-28T06:14:29;32.20;;;24.83;;
5147;SDS011;2592;48.140;7.614;2024-02-28T06:16:56;31.20;;;25.20;;
5147;SDS011;2592;48.140;7.614;2024-02-28T06:19:22;35.20;;;25.87;;
5147;SDS011;2592;48.140;7.614;2024-02-28T06:21:48;33.30;;;25.13;;
5147;SDS011;2592;48.140;7.614;2024-02-28T06:24:16;34.37;;;26.47;;
5147;SDS011;2592;48.140;7.614;2024-02-28T06:26:43;33.33;;;25.63;;
5147;SDS011;2592;48.140;7.614;2024-02-28T06:29:09;36.73;;;25.20;;
5147;SDS011;2592;48.140;7.614;2024-02-28T06:31:36;43.67;;;26.43;;
5147;SDS011;2592;48.140;7.614;2024-02-28T06:34:03;33.90;;;25.90;;
5147;SDS011;2592;48.140;7.614;2024-02-28T06:36:29;33.73;;;26.30;;
5147;SDS011;2592;48.140;7.614;2024-02-28T06:38:55;36.60;;;27.10;;
5147;SDS011;2592;48.140;7.614;2024-02-28T06:41:23;35.90;;;28.17;;
5147;SDS011;2592;48.140;7.614;2024-02-28T06:43:49;38.97;;;28.90;;
5147;SDS011;2592;48.140;7.614;2024-02-28T06:46:16;33.40;;;25.50;;
5147;SDS011;2592;48.140;7.614;2024-02-28T06:48:42;35.33;;;24.60;;
5147;SDS011;2592;48.140;7.614;2024-02-28T06:51:09;33.10;;;26.87;;
5147;SDS011;2592;48.140;7.614;2024-02-28T06:53:35;45.97;;;27.83;;
5147;SDS011;2592;48.140;7.614;2024-02-28T06:56:02;34.80;;;26.83;;
5147;SDS011;2592;48.140;7.614;2024-02-28T06:58:30;35.00;;;28.23;;
5147;SDS011;2592;48.140;7.614;2024-02-28T07:00:56;34.07;;;26.70;;
5147;SDS011;2592;48.140;7.614;2024-02-28T07:03:22;38.10;;;29.40;;
5147;SDS011;2592;48.140;7.614;2024-02-28T07:05:49;33.90;;;27.63;;
5147;SDS011;2592;48.140;7.614;2024-02-28T07:08:15;37.30;;;29.03;;
5147;SDS011;2592;48.140;7.614;2024-02-28T07:10:41;42.80;;;29.87;;
5147;SDS011;2592;48.140;7.614;2024-02-28T07:13:09;37.90;;;28.43;;
5147;SDS011;2592;48.140;7.614;2024-02-28T07:15:37;46.00;;;30.67;;
5147;SDS011;2592;48.140;7.614;2024-02-28T07:18:04;44.80;;;31.13;;
5147;SDS011;2592;48.140;7.614;2024-02-28T07:20:30;39.73;;;28.70;;
5147;SDS011;2592;48.140;7.614;2024-02-28T07:22:56;36.27;;;29.13;;
5147;SDS011;2592;48.140;7.614;2024-02-28T07:25:23;39.03;;;29.80;;
5147;SDS011;2592;48.140;7.614;2024-02-28T07:27:49;42.23;;;30.80;;
5147;SDS011;2592;48.140;7.614;2024-02-28T07:30:16;39.73;;;31.77;;
5147;SDS011;2592;48.140;7.614;2024-02-28T07:32:43;40.50;;;30.17;;
5147;SDS011;2592;48.140;7.614;2024-02-28T07:35:11;48.27;;;30.17;;
5147;SDS011;2592;48.140;7.614;2024-02-28T07:37:38;43.80;;;29.07;;
5147;SDS011;2592;48.140;7.614;2024-02-28T07:40:04;40.43;;;30.10;;
5147;SDS011;2592;48.140;7.614;2024-02-28T07:42:32;38.10;;;29.90;;
5147;SDS011;2592;48.140;7.614;2024-02-28T07:45:00;38.97;;;30.47;;
5147;SDS011;2592;48.140;7.614;2024-02-28T07:47:26;40.60;;;29.10;;
5147;SDS011;2592;48.140;7.614;2024-02-28T07:49:54;36.87;;;30.07;;
5147;SDS011;2592;48.140;7.614;2024-02-28T07:52:20;42.03;;;30.70;;
5147;SDS011;2592;48.140;7.614;2024-02-28T07:54:46;41.23;;;30.50;;
5147;SDS011;2592;48.140;7.614;2024-02-28T07:57:14;35.63;;;28.27;;
5147;SDS011;2592;48.140;7.614;2024-02-28T07:59:40;40.90;;;31.60;;
5147;SDS011;2592;48.140;7.614;2024-02-28T08:02:07;39.00;;;30.13;;
5147;SDS011;2592;48.140;7.614;2024-02-28T08:04:33;39.30;;;29.00;;
5147;SDS011;2592;48.140;7.614;2024-02-28T08:07:01;41.50;;;31.60;;
5147;SDS011;2592;48.140;7.614;2024-02-28T08:09:28;39.60;;;30.60;;
5147;SDS011;2592;48.140;7.614;2024-02-28T08:11:54;44.10;;;32.33;;
5147;SDS011;2592;48.140;7.614;2024-02-28T08:14:23;42.00;;;32.50;;
5147;SDS011;2592;48.140;7.614;2024-02-28T08:16:49;43.37;;;33.33;;
5147;SDS011;2592;48.140;7.614;2024-02-28T08:19:15;46.37;;;34.50;;
5147;SDS011;2592;48.140;7.614;2024-02-28T08:21:42;40.67;;;29.87;;
5147;SDS011;2592;48.140;7.614;2024-02-28T08:24:10;44.70;;;30.80;;
5147;SDS011;2592;48.140;7.614;2024-02-28T08:26:37;53.07;;;31.57;;
5147;SDS011;2592;48.140;7.614;2024-02-28T08:29:04;42.13;;;31.43;;
5147;SDS011;2592;48.140;7.614;2024-02-28T08:31:30;50.73;;;31.70;;
5147;SDS011;2592;48.140;7.614;2024-02-28T08:33:57;42.43;;;33.20;;
5147;SDS011;2592;48.140;7.614;2024-02-28T08:36:23;40.40;;;31.10;;
5147;SDS011;2592;48.140;7.614;2024-02-28T08:38:49;47.80;;;35.00;;
5147;SDS011;2592;48.140;7.614;2024-02-28T08:41:18;40.33;;;31.40;;
5147;SDS011;2592;48.140;7.614;2024-02-28T08:43:44;41.63;;;32.60;;
5147;SDS011;2592;48.140;7.614;2024-02-28T08:46:13;52.47;;;37.17;;
5147;SDS011;2592;48.140;7.614;2024-02-28T08:48:41;41.60;;;30.90;;
5147;SDS011;2592;48.140;7.614;2024-02-28T08:51:08;45.50;;;32.03;;
5147;SDS011;2592;48.140;7.614;2024-02-28T08:53:34;39.83;;;30.83;;
5147;SDS011;2592;48.140;7.614;2024-02-28T08:56:00;40.10;;;31.20;;
5147;SDS011;2592;48.140;7.614;2024-02-28T08:58:28;43.93;;;30.53;;
5147;SDS011;2592;48.140;7.614;2024-02-28T09:00:55;42.33;;;29.30;;
5147;SDS011;2592;48.140;7.614;2024-02-28T09:03:21;40.40;;;30.20;;
5147;SDS011;2592;48.140;7.614;2024-02-28T09:05:47;40.83;;;30.87;;
5147;SDS011;2592;48.140;7.614;2024-02-28T09:08:14;45.03;;;34.17;;
5147;SDS011;2592;48.140;7.614;2024-02-28T09:10:40;38.50;;;30.70;;
5147;SDS011;2592;48.140;7.614;2024-02-28T09:13:07;43.40;;;29.97;;
5147;SDS011;2592;48.140;7.614;2024-02-28T09:15:36;43.50;;;32.87;;
5147;SDS011;2592;48.140;7.614;2024-02-28T09:18:03;45.30;;;31.77;;
5147;SDS011;2592;48.140;7.614;2024-02-28T09:20:29;41.40;;;29.90;;
5147;SDS011;2592;48.140;7.614;2024-02-28T09:22:56;39.20;;;29.30;;
5147;SDS011;2592;48.140;7.614;2024-02-28T09:25:22;36.73;;;26.70;;
5147;SDS011;2592;48.140;7.614;2024-02-28T09:27:48;38.83;;;28.90;;
5147;SDS011;2592;48.140;7.614;2024-02-28T09:30:15;40.87;;;29.30;;
5147;SDS011;2592;48.140;7.614;2024-02-28T09:32:43;40.03;;;27.70;;
5147;SDS011;2592;48.140;7.614;2024-02-28T09:35:09;39.70;;;28.97;;
5147;SDS011;2592;48.140;7.614;2024-02-28T09:37:36;41.67;;;31.47;;
5147;SDS011;2592;48.140;7.614;2024-02-28T09:40:03;37.30;;;26.97;;
5147;SDS011;2592;48.140;7.614;2024-02-28T09:42:30;36.90;;;28.47;;
5147;SDS011;2592;48.140;7.614;2024-02-28T09:44:57;39.83;;;28.57;;
5147;SDS011;2592;48.140;7.614;2024-02-28T09:47:26;35.50;;;27.20;;
5147;SDS011;2592;48.140;7.614;2024-02-28T09:49:54;37.90;;;28.27;;
5147;SDS011;2592;48.140;7.614;2024-02-28T09:52:23;32.50;;;24.33;;
5147;SDS011;2592;48.140;7.614;2024-02-28T09:54:50;42.60;;;32.37;;
5147;SDS011;2592;48.140;7.614;2024-02-28T09:57:16;46.33;;;30.17;;
5147;SDS011;2592;48.140;7.614;2024-02-28T09:59:43;41.47;;;27.63;;
5147;SDS011;2592;48.140;7.614;2024-02-28T10:02:10;42.10;;;30.07;;
5147;SDS011;2592;48.140;7.614;2024-02-28T10:04:36;38.60;;;27.80;;
5147;SDS011;2592;48.140;7.614;2024-02-28T10:07:11;49.70;;;28.17;;
5147;SDS011;2592;48.140;7.614;2024-02-28T10:09:39;35.73;;;28.77;;
5147;SDS011;2592;48.140;7.614;2024-02-28T10:12:05;33.97;;;26.67;;
5147;SDS011;2592;48.140;7.614;2024-02-28T10:14:32;35.43;;;26.43;;
5147;SDS011;2592;48.140;7.614;2024-02-28T10:16:58;39.70;;;28.80;;
5147;SDS011;2592;48.140;7.614;2024-02-28T10:19:25;49.20;;;32.27;;
5147;SDS011;2592;48.140;7.614;2024-02-28T10:21:51;33.33;;;25.80;;
5147;SDS011;2592;48.140;7.614;2024-02-28T10:24:19;39.90;;;28.80;;
5147;SDS011;2592;48.140;7.614;2024-02-28T10:26:47;37.07;;;27.93;;
5147;SDS011;2592;48.140;7.614;2024-02-28T10:29:20;44.07;;;29.43;;
5147;SDS011;2592;48.140;7.614;2024-02-28T10:31:46;31.73;;;24.27;;
5147;SDS011;2592;48.140;7.614;2024-02-28T10:34:13;30.77;;;21.20;;
5147;SDS011;2592;48.140;7.614;2024-02-28T10:36:41;37.57;;;25.80;;
5147;SDS011;2592;48.140;7.614;2024-02-28T10:39:10;29.97;;;22.87;;
5147;SDS011;2592;48.140;7.614;2024-02-28T10:41:38;31.40;;;22.47;;
5147;SDS011;2592;48.140;7.614;2024-02-28T10:44:05;32.30;;;25.47;;
5147;SDS011;2592;48.140;7.614;2024-02-28T10:46:32;35.20;;;26.90;;
5147;SDS011;2592;48.140;7.614;2024-02-28T10:48:58;27.93;;;21.63;;
5147;SDS011;2592;48.140;7.614;2024-02-28T10:51:25;49.03;;;32.27;;
5147;SDS011;2592;48.140;7.614;2024-02-28T10:53:54;32.43;;;26.40;;
5147;SDS011;2592;48.140;7.614;2024-02-28T10:56:23;38.33;;;28.47;;
5147;SDS011;2592;48.140;7.614;2024-02-28T10:58:52;34.50;;;25.37;;
5147;SDS011;2592;48.140;7.614;2024-02-28T11:01:18;28.03;;;21.40;;
5147;SDS011;2592;48.140;7.614;2024-02-28T11:03:46;29.50;;;24.03;;
5147;SDS011;2592;48.140;7.614;2024-02-28T11:06:16;26.80;;;21.97;;
5147;SDS011;2592;48.140;7.614;2024-02-28T11:08:45;27.20;;;20.93;;
5147;SDS011;2592;48.140;7.614;2024-02-28T11:11:13;31.33;;;24.20;;
5147;SDS011;2592;48.140;7.614;2024-02-28T11:13:39;29.37;;;24.60;;
5147;SDS011;2592;48.140;7.614;2024-02-28T11:16:10;36.40;;;24.13;;
5147;SDS011;2592;48.140;7.614;2024-02-28T11:18:47;26.47;;;20.90;;
5147;SDS011;2592;48.140;7.614;2024-02-28T11:21:14;32.93;;;23.07;;
5147;SDS011;2592;48.140;7.614;2024-02-28T11:23:41;30.50;;;21.80;;
5147;SDS011;2592;48.140;7.614;2024-02-28T11:26:07;27.33;;;21.80;;
5147;SDS011;2592;48.140;7.614;2024-02-28T11:28:34;25.07;;;18.90;;
5147;SDS011;2592;48.140;7.614;2024-02-28T11:31:00;18.33;;;15.00;;
5147;SDS011;2592;48.140;7.614;2024-02-28T11:33:28;23.07;;;16.73;;
5147;SDS011;2592;48.140;7.614;2024-02-28T11:35:55;21.43;;;17.00;;
5147;SDS011;2592;48.140;7.614;2024-02-28T11:38:23;19.87;;;15.53;;
5147;SDS011;2592;48.140;7.614;2024-02-28T11:40:50;20.63;;;16.17;;
5147;SDS011;2592;48.140;7.614;2024-02-28T11:43:16;21.57;;;16.30;;
5147;SDS011;2592;48.140;7.614;2024-02-28T11:45:43;28.37;;;21.20;;
5147;SDS011;2592;48.140;7.614;2024-02-28T11:48:11;24.10;;;18.40;;
5147;SDS011;2592;48.140;7.614;2024-02-28T11:50:40;21.83;;;15.90;;
5147;SDS011;2592;48.140;7.614;2024-02-28T11:53:07;19.27;;;14.80;;
5147;SDS011;2592;48.140;7.614;2024-02-28T11:55:33;21.67;;;17.30;;
5147;SDS011;2592;48.140;7.614;2024-02-28T11:57:59;25.30;;;18.63;;
5147;SDS011;2592;48.140;7.614;2024-02-28T12:00:26;23.87;;;18.33;;
5147;SDS011;2592;48.140;7.614;2024-02-28T12:02:52;22.90;;;17.47;;
5147;SDS011;2592;48.140;7.614;2024-02-28T12:05:29;25.03;;;15.93;;
5147;SDS011;2592;48.140;7.614;2024-02-28T12:07:57;21.57;;;16.07;;
5147;SDS011;2592;48.140;7.614;2024-02-28T12:10:24;23.33;;;15.60;;
5147;SDS011;2592;48.140;7.614;2024-02-28T12:12:51;17.53;;;13.63;;
5147;SDS011;2592;48.140;7.614;2024-02-28T12:15:18;16.77;;;14.03;;
5147;SDS011;2592;48.140;7.614;2024-02-28T12:17:45;18.60;;;14.53;;
5147;SDS011;2592;48.140;7.614;2024-02-28T12:20:11;31.00;;;14.90;;
5147;SDS011;2592;48.140;7.614;2024-02-28T12:22:37;25.33;;;15.10;;
5147;SDS011;2592;48.140;7.614;2024-02-28T12:25:05;23.60;;;16.57;;
5147;SDS011;2592;48.140;7.614;2024-02-28T12:27:33;22.73;;;16.80;;
5147;SDS011;2592;48.140;7.614;2024-02-28T12:29:59;23.70;;;17.40;;
5147;SDS011;2592;48.140;7.614;2024-02-28T12:32:26;22.80;;;16.20;;
5147;SDS011;2592;48.140;7.614;2024-02-28T12:34:52;24.53;;;14.53;;
5147;SDS011;2592;48.140;7.614;2024-02-28T12:37:19;19.30;;;15.13;;
5147;SDS011;2592;48.140;7.614;2024-02-28T12:39:45;17.43;;;14.40;;
5147;SDS011;2592;48.140;7.614;2024-02-28T12:42:14;16.53;;;13.73;;
5147;SDS011;2592;48.140;7.614;2024-02-28T12:44:40;19.80;;;15.50;;
5147;SDS011;2592;48.140;7.614;2024-02-28T12:47:10;20.40;;;15.30;;
5147;SDS011;2592;48.140;7.614;2024-02-28T12:49:37;20.40;;;14.17;;
5147;SDS011;2592;48.140;7.614;2024-02-28T12:52:03;18.63;;;13.60;;
5147;SDS011;2592;48.140;7.614;2024-02-28T12:54:30;20.07;;;14.10;;
5147;SDS011;2592;48.140;7.614;2024-02-28T12:56:56;16.83;;;13.00;;
5147;SDS011;2592;48.140;7.614;2024-02-28T12:59:25;22.43;;;16.43;;
5147;SDS011;2592;48.140;7.614;2024-02-28T13:01:52;23.93;;;16.47;;
5147;SDS011;2592;48.140;7.614;2024-02-28T13:04:18;21.23;;;16.27;;
5147;SDS011;2592;48.140;7.614;2024-02-28T13:06:44;24.23;;;17.20;;
5147;SDS011;2592;48.140;7.614;2024-02-28T13:09:11;25.07;;;17.27;;
5147;SDS011;2592;48.140;7.614;2024-02-28T13:11:38;26.37;;;17.53;;
5147;SDS011;2592;48.140;7.614;2024-02-28T13:14:04;28.00;;;20.10;;
5147;SDS011;2592;48.140;7.614;2024-02-28T13:16:34;22.17;;;17.93;;
5147;SDS011;2592;48.140;7.614;2024-02-28T13:19:00;23.93;;;18.47;;
5147;SDS011;2592;48.140;7.614;2024-02-28T13:21:27;27.47;;;20.93;;
5147;SDS011;2592;48.140;7.614;2024-02-28T13:23:54;32.17;;;24.50;;
5147;SDS011;2592;48.140;7.614;2024-02-28T13:26:20;30.70;;;22.40;;
5147;SDS011;2592;48.140;7.614;2024-02-28T13:28:46;22.37;;;17.67;;
5147;SDS011;2592;48.140;7.614;2024-02-28T13:31:13;25.83;;;18.53;;
5147;SDS011;2592;48.140;7.614;2024-02-28T13:33:42;23.30;;;18.50;;
5147;SDS011;2592;48.140;7.614;2024-02-28T13:36:08;23.37;;;17.93;;
5147;SDS011;2592;48.140;7.614;2024-02-28T13:38:35;21.57;;;16.57;;
5147;SDS011;2592;48.140;7.614;2024-02-28T13:41:02;25.97;;;16.90;;
5147;SDS011;2592;48.140;7.614;2024-02-28T13:43:28;21.90;;;16.80;;
5147;SDS011;2592;48.140;7.614;2024-02-28T13:45:55;23.33;;;16.80;;
5147;SDS011;2592;48.140;7.614;2024-02-28T13:48:25;21.20;;;17.37;;
5147;SDS011;2592;48.140;7.614;2024-02-28T13:50:54;18.60;;;16.30;;
5147;SDS011;2592;48.140;7.614;2024-02-28T13:53:21;24.77;;;17.17;;
5147;SDS011;2592;48.140;7.614;2024-02-28T13:55:48;19.10;;;15.10;;
5147;SDS011;2592;48.140;7.614;2024-02-28T13:58:14;23.47;;;17.40;;
5147;SDS011;2592;48.140;7.614;2024-02-28T14:00:43;20.10;;;15.77;;
5147;SDS011;2592;48.140;7.614;2024-02-28T14:03:10;21.57;;;16.87;;
5147;SDS011;2592;48.140;7.614;2024-02-28T14:05:37;19.60;;;15.47;;
5147;SDS011;2592;48.140;7.614;2024-02-28T14:08:05;21.53;;;14.63;;
5147;SDS011;2592;48.140;7.614;2024-02-28T14:10:33;23.70;;;16.33;;
5147;SDS011;2592;48.140;7.614;2024-02-28T14:13:00;35.30;;;23.20;;
5147;SDS011;2592;48.140;7.614;2024-02-28T14:15:26;23.70;;;17.53;;
5147;SDS011;2592;48.140;7.614;2024-02-28T14:17:52;20.93;;;16.30;;
5147;SDS011;2592;48.140;7.614;2024-02-28T14:20:20;19.10;;;15.50;;
5147;SDS011;2592;48.140;7.614;2024-02-28T14:22:47;23.07;;;16.10;;
5147;SDS011;2592;48.140;7.614;2024-02-28T14:25:15;31.50;;;16.00;;
5147;SDS011;2592;48.140;7.614;2024-02-28T14:27:42;20.50;;;15.10;;
5147;SDS011;2592;48.140;7.614;2024-02-28T14:30:09;20.97;;;14.80;;
5147;SDS011;2592;48.140;7.614;2024-02-28T14:32:36;20.90;;;15.77;;
5147;SDS011;2592;48.140;7.614;2024-02-28T14:35:02;25.07;;;15.90;;
5147;SDS011;2592;48.140;7.614;2024-02-28T14:37:30;21.03;;;15.77;;
5147;SDS011;2592;48.140;7.614;2024-02-28T14:39:56;21.50;;;15.37;;
5147;SDS011;2592;48.140;7.614;2024-02-28T14:42:24;21.53;;;16.43;;
5147;SDS011;2592;48.140;7.614;2024-02-28T14:44:50;17.23;;;14.53;;